Decoded Metar for LDRI (RIJEKA in CROATIA) (IATA:RJK) | Meteo·Mobile Aviation Weather
aviador You're here:

LDRI Decoded Metar

RIJEKA in CROATIA
Report Time2019-01-21 15:00:00
UTC Time2019-01-21 15:29:17
Flight Rules vfr VFR
Wind040° at 10 kt
W.Decomp.*RWY 32: 2.2 kt HW 9.7 kt RCW
W.Rank040° ranks 12
Current wind is above 040° avg. (9.9)
Visibility9999 m
Phenomena:N/A
Clouds:N/A
Expected CloudBase > 3,600 ft AGL from Temp-Dew spread
CeilingNone
Temp05°C (ISA -9)
Dew Point-4°C (53% RH)
AAT-1.1°C
QNH1015 hPa
Density Alt-866 ft
Elevation279 ft
Report Wrong Elevation
Raw Report
LDRI 211500Z 04010KT 360V080 CAVOK 05/M04 Q1015=

Extra information for LDRI:More info

Metar Taf Metar & Taf Last 4 Metars F.Rules Stats Wind Profile Meteogram Temp Stats Airport Information Weather charts Add Link Nearby VenuesMetar ALERT Operation Metar Decoded Social comments